Terminal Aerodrome Forecast
Issued by NWS

Home | Current Version | Previous Version | Text Only | Print | Product List | Glossary On
Versions: 1 2 3 4 5 6 7 8 9 10 11 12 13 14 15 16 17 18 19 20 21 22 23
385
FTUS41 KRLX 292326
TAFCKB
TAF
KCKB 292326Z 3000/3024 VRB04KT P6SM BKN050
     FM300500 00000KT 4SM BR BKN100
     FM300900 00000KT 1SM BR SCT100
     FM301200 00000KT 5SM BR SCT100
     FM301300 VRB04KT P6SM SCT100=

USA.gov is the U.S. government's official web portal to all federal, state and local government web resources and services.